sensor_id;sensor_type;location;lat;lon;timestamp;temperature;humidity
19755;DHT22;10036;47.812;9.274;2022-09-30T00:00:33;8.50;99.90
19755;DHT22;10036;47.812;9.274;2022-09-30T00:03:00;8.60;99.90
19755;DHT22;10036;47.812;9.274;2022-09-30T00:05:27;8.60;99.90
19755;DHT22;10036;47.812;9.274;2022-09-30T00:07:53;8.70;99.90
19755;DHT22;10036;47.812;9.274;2022-09-30T00:10:20;8.70;99.90
19755;DHT22;10036;47.812;9.274;2022-09-30T00:12:50;8.90;99.90
19755;DHT22;10036;47.812;9.274;2022-09-30T00:15:18;8.80;99.90
19755;DHT22;10036;47.812;9.274;2022-09-30T00:17:45;8.80;99.90
19755;DHT22;10036;47.812;9.274;2022-09-30T00:20:12;8.80;99.90
19755;DHT22;10036;47.812;9.274;2022-09-30T00:22:40;8.80;99.90
19755;DHT22;10036;47.812;9.274;2022-09-30T00:25:07;8.70;99.90
19755;DHT22;10036;47.812;9.274;2022-09-30T00:27:34;8.50;99.90
19755;DHT22;10036;47.812;9.274;2022-09-30T00:30:01;8.60;99.90
19755;DHT22;10036;47.812;9.274;2022-09-30T00:32:29;8.60;99.90
19755;DHT22;10036;47.812;9.274;2022-09-30T00:34:56;8.50;99.90
19755;DHT22;10036;47.812;9.274;2022-09-30T00:37:23;8.40;99.90
19755;DHT22;10036;47.812;9.274;2022-09-30T00:39:50;8.40;99.90
19755;DHT22;10036;47.812;9.274;2022-09-30T00:42:17;8.40;99.90
19755;DHT22;10036;47.812;9.274;2022-09-30T00:44:49;8.40;99.90
19755;DHT22;10036;47.812;9.274;2022-09-30T00:47:27;8.40;99.90
19755;DHT22;10036;47.812;9.274;2022-09-30T00:50:00;8.50;99.90
19755;DHT22;10036;47.812;9.274;2022-09-30T00:52:27;8.50;99.90
19755;DHT22;10036;47.812;9.274;2022-09-30T00:54:55;8.50;99.90
19755;DHT22;10036;47.812;9.274;2022-09-30T00:57:24;8.50;99.90
19755;DHT22;10036;47.812;9.274;2022-09-30T00:59:51;8.60;99.90
19755;DHT22;10036;47.812;9.274;2022-09-30T01:02:19;8.60;99.90
19755;DHT22;10036;47.812;9.274;2022-09-30T01:04:46;8.60;99.90
19755;DHT22;10036;47.812;9.274;2022-09-30T01:07:14;8.60;99.90
19755;DHT22;10036;47.812;9.274;2022-09-30T01:09:42;8.50;99.90
19755;DHT22;10036;47.812;9.274;2022-09-30T01:12:12;8.50;99.90
19755;DHT22;10036;47.812;9.274;2022-09-30T01:14:40;8.50;99.90
19755;DHT22;10036;47.812;9.274;2022-09-30T01:17:10;8.40;99.90
19755;DHT22;10036;47.812;9.274;2022-09-30T01:20:19;8.40;99.90
19755;DHT22;10036;47.812;9.274;2022-09-30T01:23:01;8.50;99.90
19755;DHT22;10036;47.812;9.274;2022-09-30T01:25:57;8.50;99.90
19755;DHT22;10036;47.812;9.274;2022-09-30T01:28:57;8.40;99.90
19755;DHT22;10036;47.812;9.274;2022-09-30T01:31:42;8.30;99.90
19755;DHT22;10036;47.812;9.274;2022-09-30T01:34:18;8.40;99.90
19755;DHT22;10036;47.812;9.274;2022-09-30T01:37:01;8.40;99.90
19755;DHT22;10036;47.812;9.274;2022-09-30T01:39:40;8.40;99.90
19755;DHT22;10036;47.812;9.274;2022-09-30T01:42:14;8.30;99.90
19755;DHT22;10036;47.812;9.274;2022-09-30T01:44:49;8.30;99.90
19755;DHT22;10036;47.812;9.274;2022-09-30T01:47:24;8.50;99.90
19755;DHT22;10036;47.812;9.274;2022-09-30T01:49:55;8.40;99.90
19755;DHT22;10036;47.812;9.274;2022-09-30T01:52:31;8.40;99.90
19755;DHT22;10036;47.812;9.274;2022-09-30T01:55:06;8.50;99.90
19755;DHT22;10036;47.812;9.274;2022-09-30T01:57:41;8.40;99.90
19755;DHT22;10036;47.812;9.274;2022-09-30T02:00:11;8.40;99.90
19755;DHT22;10036;47.812;9.274;2022-09-30T02:02:44;8.40;99.90
19755;DHT22;10036;47.812;9.274;2022-09-30T02:05:17;8.40;99.90
19755;DHT22;10036;47.812;9.274;2022-09-30T02:07:48;8.30;99.90
19755;DHT22;10036;47.812;9.274;2022-09-30T02:10:22;8.50;99.90
19755;DHT22;10036;47.812;9.274;2022-09-30T02:12:54;8.40;99.90
19755;DHT22;10036;47.812;9.274;2022-09-30T02:15:25;8.30;99.90
19755;DHT22;10036;47.812;9.274;2022-09-30T02:17:58;8.50;99.90
19755;DHT22;10036;47.812;9.274;2022-09-30T02:20:31;8.40;99.90
19755;DHT22;10036;47.812;9.274;2022-09-30T02:23:03;8.40;99.90
19755;DHT22;10036;47.812;9.274;2022-09-30T02:25:37;8.40;99.90
19755;DHT22;10036;47.812;9.274;2022-09-30T02:28:10;8.30;99.90
19755;DHT22;10036;47.812;9.274;2022-09-30T02:30:41;8.40;99.90
19755;DHT22;10036;47.812;9.274;2022-09-30T02:33:16;8.40;99.90
19755;DHT22;10036;47.812;9.274;2022-09-30T02:35:47;8.50;99.90
19755;DHT22;10036;47.812;9.274;2022-09-30T02:38:17;8.50;99.90
19755;DHT22;10036;47.812;9.274;2022-09-30T02:40:46;8.50;99.90
19755;DHT22;10036;47.812;9.274;2022-09-30T02:43:17;8.50;99.90
19755;DHT22;10036;47.812;9.274;2022-09-30T02:45:50;8.50;99.90
19755;DHT22;10036;47.812;9.274;2022-09-30T02:48:28;8.40;99.90
19755;DHT22;10036;47.812;9.274;2022-09-30T02:51:01;8.50;99.90
19755;DHT22;10036;47.812;9.274;2022-09-30T02:53:36;8.50;99.90
19755;DHT22;10036;47.812;9.274;2022-09-30T02:56:12;8.60;99.90
19755;DHT22;10036;47.812;9.274;2022-09-30T02:58:41;8.50;99.90
19755;DHT22;10036;47.812;9.274;2022-09-30T03:01:10;8.50;99.90
19755;DHT22;10036;47.812;9.274;2022-09-30T03:03:42;8.50;99.90
19755;DHT22;10036;47.812;9.274;2022-09-30T03:06:10;8.50;99.90
19755;DHT22;10036;47.812;9.274;2022-09-30T03:08:37;8.50;99.90
19755;DHT22;10036;47.812;9.274;2022-09-30T03:11:05;8.50;99.90
19755;DHT22;10036;47.812;9.274;2022-09-30T03:13:52;8.40;99.90
19755;DHT22;10036;47.812;9.274;2022-09-30T03:16:26;8.40;99.90
19755;DHT22;10036;47.812;9.274;2022-09-30T03:19:10;8.50;99.90
19755;DHT22;10036;47.812;9.274;2022-09-30T03:21:55;8.40;99.90
19755;DHT22;10036;47.812;9.274;2022-09-30T03:24:45;8.50;99.90
19755;DHT22;10036;47.812;9.274;2022-09-30T03:27:22;8.50;99.90
19755;DHT22;10036;47.812;9.274;2022-09-30T03:29:56;8.60;99.90
19755;DHT22;10036;47.812;9.274;2022-09-30T03:32:38;8.50;99.90
19755;DHT22;10036;47.812;9.274;2022-09-30T03:35:17;8.50;99.90
19755;DHT22;10036;47.812;9.274;2022-09-30T03:37:55;8.40;99.90
19755;DHT22;10036;47.812;9.274;2022-09-30T03:40:29;8.50;99.90
19755;DHT22;10036;47.812;9.274;2022-09-30T03:43:03;8.50;99.90
19755;DHT22;10036;47.812;9.274;2022-09-30T03:45:35;8.50;99.90
19755;DHT22;10036;47.812;9.274;2022-09-30T03:48:06;8.40;99.90
19755;DHT22;10036;47.812;9.274;2022-09-30T03:50:36;8.40;99.90
19755;DHT22;10036;47.812;9.274;2022-09-30T03:53:08;8.40;99.90
19755;DHT22;10036;47.812;9.274;2022-09-30T03:55:45;8.50;99.90
19755;DHT22;10036;47.812;9.274;2022-09-30T03:58:14;8.50;99.90
19755;DHT22;10036;47.812;9.274;2022-09-30T04:00:46;8.50;99.90
19755;DHT22;10036;47.812;9.274;2022-09-30T04:03:14;8.50;99.90
19755;DHT22;10036;47.812;9.274;2022-09-30T04:05:43;8.70;99.90
19755;DHT22;10036;47.812;9.274;2022-09-30T04:08:10;8.70;99.90
19755;DHT22;10036;47.812;9.274;2022-09-30T04:10:38;8.60;99.90
19755;DHT22;10036;47.812;9.274;2022-09-30T04:13:06;8.60;99.90
19755;DHT22;10036;47.812;9.274;2022-09-30T04:15:33;8.60;99.90
19755;DHT22;10036;47.812;9.274;2022-09-30T04:18:00;8.50;99.90
19755;DHT22;10036;47.812;9.274;2022-09-30T04:20:28;8.60;99.90
19755;DHT22;10036;47.812;9.274;2022-09-30T04:22:58;8.50;99.90
19755;DHT22;10036;47.812;9.274;2022-09-30T04:25:25;8.70;99.90
19755;DHT22;10036;47.812;9.274;2022-09-30T04:27:52;8.60;99.90
19755;DHT22;10036;47.812;9.274;2022-09-30T04:30:19;8.60;99.90
19755;DHT22;10036;47.812;9.274;2022-09-30T04:32:46;8.60;99.90
19755;DHT22;10036;47.812;9.274;2022-09-30T04:35:13;8.50;99.90
19755;DHT22;10036;47.812;9.274;2022-09-30T04:37:42;8.50;99.90
19755;DHT22;10036;47.812;9.274;2022-09-30T04:40:11;8.70;99.90
19755;DHT22;10036;47.812;9.274;2022-09-30T04:42:38;8.60;99.90
19755;DHT22;10036;47.812;9.274;2022-09-30T04:45:08;8.60;99.90
19755;DHT22;10036;47.812;9.274;2022-09-30T04:47:35;8.60;99.90
19755;DHT22;10036;47.812;9.274;2022-09-30T04:50:03;8.50;99.90
19755;DHT22;10036;47.812;9.274;2022-09-30T04:52:30;8.50;99.90
19755;DHT22;10036;47.812;9.274;2022-09-30T04:54:57;8.50;99.90
19755;DHT22;10036;47.812;9.274;2022-09-30T04:57:25;8.60;99.90
19755;DHT22;10036;47.812;9.274;2022-09-30T04:59:52;8.50;99.90
19755;DHT22;10036;47.812;9.274;2022-09-30T05:02:19;8.60;99.90
19755;DHT22;10036;47.812;9.274;2022-09-30T05:04:46;8.50;99.90
19755;DHT22;10036;47.812;9.274;2022-09-30T05:07:13;8.40;99.90
19755;DHT22;10036;47.812;9.274;2022-09-30T05:09:40;8.50;99.90
19755;DHT22;10036;47.812;9.274;2022-09-30T05:12:07;8.50;99.90
19755;DHT22;10036;47.812;9.274;2022-09-30T05:14:35;8.50;99.90
19755;DHT22;10036;47.812;9.274;2022-09-30T05:17:02;8.50;99.90
19755;DHT22;10036;47.812;9.274;2022-09-30T05:19:29;8.50;99.90
19755;DHT22;10036;47.812;9.274;2022-09-30T05:21:56;8.50;99.90
19755;DHT22;10036;47.812;9.274;2022-09-30T05:24:23;8.60;99.90
19755;DHT22;10036;47.812;9.274;2022-09-30T05:26:50;8.50;99.90
19755;DHT22;10036;47.812;9.274;2022-09-30T05:29:17;8.50;99.90
19755;DHT22;10036;47.812;9.274;2022-09-30T05:31:45;8.60;99.90
19755;DHT22;10036;47.812;9.274;2022-09-30T05:34:12;8.50;99.90
19755;DHT22;10036;47.812;9.274;2022-09-30T05:36:41;8.50;99.90
19755;DHT22;10036;47.812;9.274;2022-09-30T05:39:09;8.70;99.90
19755;DHT22;10036;47.812;9.274;2022-09-30T05:41:36;8.50;99.90
19755;DHT22;10036;47.812;9.274;2022-09-30T05:44:03;8.60;99.90
19755;DHT22;10036;47.812;9.274;2022-09-30T05:46:30;8.70;99.90
19755;DHT22;10036;47.812;9.274;2022-09-30T05:48:59;8.70;99.90
19755;DHT22;10036;47.812;9.274;2022-09-30T05:51:26;8.70;99.90
19755;DHT22;10036;47.812;9.274;2022-09-30T05:53:52;8.70;99.90
19755;DHT22;10036;47.812;9.274;2022-09-30T05:56:19;8.80;99.90
19755;DHT22;10036;47.812;9.274;2022-09-30T05:58:46;8.80;99.90
19755;DHT22;10036;47.812;9.274;2022-09-30T06:01:15;8.80;99.90
19755;DHT22;10036;47.812;9.274;2022-09-30T06:03:43;8.90;99.90
19755;DHT22;10036;47.812;9.274;2022-09-30T06:06:12;8.90;99.90
19755;DHT22;10036;47.812;9.274;2022-09-30T06:08:39;8.80;99.90
19755;DHT22;10036;47.812;9.274;2022-09-30T06:11:09;8.90;99.90
19755;DHT22;10036;47.812;9.274;2022-09-30T06:13:37;8.90;99.90
19755;DHT22;10036;47.812;9.274;2022-09-30T06:16:05;8.90;99.90
19755;DHT22;10036;47.812;9.274;2022-09-30T06:18:33;8.90;99.90
19755;DHT22;10036;47.812;9.274;2022-09-30T06:21:02;8.90;99.90
19755;DHT22;10036;47.812;9.274;2022-09-30T06:23:31;9.00;99.90
19755;DHT22;10036;47.812;9.274;2022-09-30T06:25:59;9.00;99.90
19755;DHT22;10036;47.812;9.274;2022-09-30T06:28:27;9.00;99.90
19755;DHT22;10036;47.812;9.274;2022-09-30T06:30:54;9.00;99.90
19755;DHT22;10036;47.812;9.274;2022-09-30T06:33:21;9.00;99.90
19755;DHT22;10036;47.812;9.274;2022-09-30T06:35:49;9.10;99.90
19755;DHT22;10036;47.812;9.274;2022-09-30T06:38:16;9.30;99.90
19755;DHT22;10036;47.812;9.274;2022-09-30T06:40:45;9.10;99.90
19755;DHT22;10036;47.812;9.274;2022-09-30T06:43:14;9.20;99.90
19755;DHT22;10036;47.812;9.274;2022-09-30T06:45:41;9.30;99.90
19755;DHT22;10036;47.812;9.274;2022-09-30T06:48:08;9.30;99.90
19755;DHT22;10036;47.812;9.274;2022-09-30T06:50:35;9.30;99.90
19755;DHT22;10036;47.812;9.274;2022-09-30T06:53:05;9.40;99.90
19755;DHT22;10036;47.812;9.274;2022-09-30T06:55:33;9.40;99.90
19755;DHT22;10036;47.812;9.274;2022-09-30T06:58:05;9.40;99.90
19755;DHT22;10036;47.812;9.274;2022-09-30T07:00:35;9.50;99.90
19755;DHT22;10036;47.812;9.274;2022-09-30T07:03:03;9.50;99.90
19755;DHT22;10036;47.812;9.274;2022-09-30T07:05:34;9.50;99.90
19755;DHT22;10036;47.812;9.274;2022-09-30T07:08:01;9.50;99.90
19755;DHT22;10036;47.812;9.274;2022-09-30T07:10:28;9.50;99.90
19755;DHT22;10036;47.812;9.274;2022-09-30T07:12:55;9.60;99.90
19755;DHT22;10036;47.812;9.274;2022-09-30T07:15:23;9.60;99.90
19755;DHT22;10036;47.812;9.274;2022-09-30T07:17:50;9.70;99.90
19755;DHT22;10036;47.812;9.274;2022-09-30T07:20:17;9.70;99.90
19755;DHT22;10036;47.812;9.274;2022-09-30T07:22:44;9.70;99.90
19755;DHT22;10036;47.812;9.274;2022-09-30T07:25:12;9.80;99.90
19755;DHT22;10036;47.812;9.274;2022-09-30T07:27:39;9.80;99.90
19755;DHT22;10036;47.812;9.274;2022-09-30T07:30:07;9.90;99.90
19755;DHT22;10036;47.812;9.274;2022-09-30T07:32:35;9.90;99.90
19755;DHT22;10036;47.812;9.274;2022-09-30T07:35:03;9.90;99.90
19755;DHT22;10036;47.812;9.274;2022-09-30T07:37:30;10.00;99.90
19755;DHT22;10036;47.812;9.274;2022-09-30T07:40:01;10.00;99.90
19755;DHT22;10036;47.812;9.274;2022-09-30T07:42:28;10.10;99.90
19755;DHT22;10036;47.812;9.274;2022-09-30T07:44:56;10.10;99.90
19755;DHT22;10036;47.812;9.274;2022-09-30T07:47:22;10.20;99.90
19755;DHT22;10036;47.812;9.274;2022-09-30T07:49:51;10.30;99.90
19755;DHT22;10036;47.812;9.274;2022-09-30T07:52:18;10.30;99.90
19755;DHT22;10036;47.812;9.274;2022-09-30T07:54:45;10.30;99.90
19755;DHT22;10036;47.812;9.274;2022-09-30T07:57:11;10.40;99.90
19755;DHT22;10036;47.812;9.274;2022-09-30T07:59:39;10.40;99.90
19755;DHT22;10036;47.812;9.274;2022-09-30T08:02:11;10.50;99.90
19755;DHT22;10036;47.812;9.274;2022-09-30T08:04:39;10.50;99.90
19755;DHT22;10036;47.812;9.274;2022-09-30T08:07:08;10.50;99.90
19755;DHT22;10036;47.812;9.274;2022-09-30T08:09:35;10.50;99.90
19755;DHT22;10036;47.812;9.274;2022-09-30T08:12:03;10.50;99.90
19755;DHT22;10036;47.812;9.274;2022-09-30T08:14:30;10.50;99.90
19755;DHT22;10036;47.812;9.274;2022-09-30T08:16:57;10.50;99.90
19755;DHT22;10036;47.812;9.274;2022-09-30T08:19:26;10.50;99.90
19755;DHT22;10036;47.812;9.274;2022-09-30T08:21:54;10.70;99.90
19755;DHT22;10036;47.812;9.274;2022-09-30T08:24:22;10.70;99.90
19755;DHT22;10036;47.812;9.274;2022-09-30T08:26:50;10.60;99.90
19755;DHT22;10036;47.812;9.274;2022-09-30T08:29:17;10.70;99.90
19755;DHT22;10036;47.812;9.274;2022-09-30T08:31:44;10.70;99.90
19755;DHT22;10036;47.812;9.274;2022-09-30T08:34:11;10.70;99.90
19755;DHT22;10036;47.812;9.274;2022-09-30T08:36:37;10.80;99.90
19755;DHT22;10036;47.812;9.274;2022-09-30T08:39:04;10.80;99.90
19755;DHT22;10036;47.812;9.274;2022-09-30T08:41:54;10.90;99.90
19755;DHT22;10036;47.812;9.274;2022-09-30T08:44:40;10.90;99.90
19755;DHT22;10036;47.812;9.274;2022-09-30T08:47:29;11.00;99.90
19755;DHT22;10036;47.812;9.274;2022-09-30T08:50:07;10.90;99.90
19755;DHT22;10036;47.812;9.274;2022-09-30T08:52:39;11.00;99.90
19755;DHT22;10036;47.812;9.274;2022-09-30T08:55:07;11.10;99.90
19755;DHT22;10036;47.812;9.274;2022-09-30T08:57:39;11.20;99.90
19755;DHT22;10036;47.812;9.274;2022-09-30T09:00:11;11.30;99.90
19755;DHT22;10036;47.812;9.274;2022-09-30T09:02:44;11.50;99.90
19755;DHT22;10036;47.812;9.274;2022-09-30T09:05:24;11.60;99.90
19755;DHT22;10036;47.812;9.274;2022-09-30T09:07:59;11.70;99.90
19755;DHT22;10036;47.812;9.274;2022-09-30T09:10:39;11.70;99.90
19755;DHT22;10036;47.812;9.274;2022-09-30T09:13:17;11.70;99.90
19755;DHT22;10036;47.812;9.274;2022-09-30T09:15:54;11.70;99.90
19755;DHT22;10036;47.812;9.274;2022-09-30T09:18:38;11.80;99.90
19755;DHT22;10036;47.812;9.274;2022-09-30T09:21:17;11.90;99.90
19755;DHT22;10036;47.812;9.274;2022-09-30T09:23:47;11.80;99.90
19755;DHT22;10036;47.812;9.274;2022-09-30T09:26:14;11.70;99.90
19755;DHT22;10036;47.812;9.274;2022-09-30T09:28:51;11.80;99.90
19755;DHT22;10036;47.812;9.274;2022-09-30T09:31:24;11.90;99.90
19755;DHT22;10036;47.812;9.274;2022-09-30T09:33:58;11.90;99.90
19755;DHT22;10036;47.812;9.274;2022-09-30T09:36:48;11.90;99.90
19755;DHT22;10036;47.812;9.274;2022-09-30T09:39:31;12.00;99.90
19755;DHT22;10036;47.812;9.274;2022-09-30T09:42:14;12.00;99.90
19755;DHT22;10036;47.812;9.274;2022-09-30T09:44:53;12.00;99.90
19755;DHT22;10036;47.812;9.274;2022-09-30T09:47:21;12.10;99.90
19755;DHT22;10036;47.812;9.274;2022-09-30T09:49:51;12.00;99.90
19755;DHT22;10036;47.812;9.274;2022-09-30T09:55:24;12.10;99.90
19755;DHT22;10036;47.812;9.274;2022-09-30T09:58:05;12.20;99.90
19755;DHT22;10036;47.812;9.274;2022-09-30T10:00:33;12.30;99.90
19755;DHT22;10036;47.812;9.274;2022-09-30T10:03:26;12.30;99.90
19755;DHT22;10036;47.812;9.274;2022-09-30T10:06:02;12.40;99.90
19755;DHT22;10036;47.812;9.274;2022-09-30T10:08:31;12.40;99.90
19755;DHT22;10036;47.812;9.274;2022-09-30T10:10:59;12.50;99.90
19755;DHT22;10036;47.812;9.274;2022-09-30T10:13:29;12.50;99.90
19755;DHT22;10036;47.812;9.274;2022-09-30T10:15:59;12.60;99.90
19755;DHT22;10036;47.812;9.274;2022-09-30T10:18:30;12.60;99.90
19755;DHT22;10036;47.812;9.274;2022-09-30T10:20:59;12.80;99.90
19755;DHT22;10036;47.812;9.274;2022-09-30T10:23:28;12.80;99.90
19755;DHT22;10036;47.812;9.274;2022-09-30T10:26:00;12.70;99.90
19755;DHT22;10036;47.812;9.274;2022-09-30T10:28:31;12.70;99.90
19755;DHT22;10036;47.812;9.274;2022-09-30T10:31:02;12.80;99.90
19755;DHT22;10036;47.812;9.274;2022-09-30T10:33:34;12.70;99.90
19755;DHT22;10036;47.812;9.274;2022-09-30T10:36:13;12.80;99.90
19755;DHT22;10036;47.812;9.274;2022-09-30T10:38:51;12.90;99.90
19755;DHT22;10036;47.812;9.274;2022-09-30T10:41:24;12.70;99.90
19755;DHT22;10036;47.812;9.274;2022-09-30T10:43:54;12.70;99.90
19755;DHT22;10036;47.812;9.274;2022-09-30T10:46:24;12.80;99.90
19755;DHT22;10036;47.812;9.274;2022-09-30T10:48:53;12.90;99.90
19755;DHT22;10036;47.812;9.274;2022-09-30T10:51:24;12.90;99.90
19755;DHT22;10036;47.812;9.274;2022-09-30T10:53:51;12.90;99.90
19755;DHT22;10036;47.812;9.274;2022-09-30T10:56:43;12.90;99.90
19755;DHT22;10036;47.812;9.274;2022-09-30T10:59:25;13.00;99.90
19755;DHT22;10036;47.812;9.274;2022-09-30T11:01:59;13.10;99.90
19755;DHT22;10036;47.812;9.274;2022-09-30T11:04:31;13.20;99.90
19755;DHT22;10036;47.812;9.274;2022-09-30T11:07:08;13.30;99.90
19755;DHT22;10036;47.812;9.274;2022-09-30T11:09:42;13.30;99.90
19755;DHT22;10036;47.812;9.274;2022-09-30T11:12:13;13.20;99.90
19755;DHT22;10036;47.812;9.274;2022-09-30T11:14:45;13.20;99.90
19755;DHT22;10036;47.812;9.274;2022-09-30T11:17:25;13.20;99.90
19755;DHT22;10036;47.812;9.274;2022-09-30T11:20:02;13.30;99.90
19755;DHT22;10036;47.812;9.274;2022-09-30T11:22:38;13.30;99.90
19755;DHT22;10036;47.812;9.274;2022-09-30T11:25:11;13.40;99.90
19755;DHT22;10036;47.812;9.274;2022-09-30T11:27:48;13.30;99.90
19755;DHT22;10036;47.812;9.274;2022-09-30T11:30:19;13.30;99.90
19755;DHT22;10036;47.812;9.274;2022-09-30T11:33:03;13.30;99.90
19755;DHT22;10036;47.812;9.274;2022-09-30T11:35:43;13.30;99.90
19755;DHT22;10036;47.812;9.274;2022-09-30T11:38:38;13.30;99.90
19755;DHT22;10036;47.812;9.274;2022-09-30T11:41:08;13.30;99.90
19755;DHT22;10036;47.812;9.274;2022-09-30T11:43:44;13.30;99.90
19755;DHT22;10036;47.812;9.274;2022-09-30T11:46:23;13.40;99.90
19755;DHT22;10036;47.812;9.274;2022-09-30T11:49:25;13.40;99.90
19755;DHT22;10036;47.812;9.274;2022-09-30T11:51:57;13.40;99.90
19755;DHT22;10036;47.812;9.274;2022-09-30T11:54:41;13.50;99.90
19755;DHT22;10036;47.812;9.274;2022-09-30T11:57:15;13.60;99.90
19755;DHT22;10036;47.812;9.274;2022-09-30T11:59:48;13.50;99.90
19755;DHT22;10036;47.812;9.274;2022-09-30T12:02:27;13.50;99.90
19755;DHT22;10036;47.812;9.274;2022-09-30T12:04:59;13.50;99.90
19755;DHT22;10036;47.812;9.274;2022-09-30T12:07:36;13.70;99.90
19755;DHT22;10036;47.812;9.274;2022-09-30T12:10:13;13.80;99.90
19755;DHT22;10036;47.812;9.274;2022-09-30T12:12:43;13.80;99.90
19755;DHT22;10036;47.812;9.274;2022-09-30T12:15:14;14.00;99.90
19755;DHT22;10036;47.812;9.274;2022-09-30T12:17:44;14.00;99.90
19755;DHT22;10036;47.812;9.274;2022-09-30T12:20:19;13.80;99.90
19755;DHT22;10036;47.812;9.274;2022-09-30T12:22:52;13.80;99.90
19755;DHT22;10036;47.812;9.274;2022-09-30T12:25:25;13.90;99.90
19755;DHT22;10036;47.812;9.274;2022-09-30T12:27:58;13.90;99.90
19755;DHT22;10036;47.812;9.274;2022-09-30T12:30:47;14.00;99.90
19755;DHT22;10036;47.812;9.274;2022-09-30T12:33:30;14.00;99.90
19755;DHT22;10036;47.812;9.274;2022-09-30T12:36:23;14.00;99.90
19755;DHT22;10036;47.812;9.274;2022-09-30T12:41:57;14.10;99.90
19755;DHT22;10036;47.812;9.274;2022-09-30T12:44:50;14.20;99.90
19755;DHT22;10036;47.812;9.274;2022-09-30T12:47:30;14.30;99.90
19755;DHT22;10036;47.812;9.274;2022-09-30T12:50:02;14.30;99.90
19755;DHT22;10036;47.812;9.274;2022-09-30T12:52:33;14.30;99.90
19755;DHT22;10036;47.812;9.274;2022-09-30T12:55:07;14.40;99.90
19755;DHT22;10036;47.812;9.274;2022-09-30T12:57:39;14.50;99.90
19755;DHT22;10036;47.812;9.274;2022-09-30T13:00:15;14.40;99.90
19755;DHT22;10036;47.812;9.274;2022-09-30T13:02:44;14.20;99.90
19755;DHT22;10036;47.812;9.274;2022-09-30T13:08:45;14.10;99.90
19755;DHT22;10036;47.812;9.274;2022-09-30T13:11:32;14.10;99.90
19755;DHT22;10036;47.812;9.274;2022-09-30T13:14:11;14.00;99.90
19755;DHT22;10036;47.812;9.274;2022-09-30T13:20:00;13.80;99.90
19755;DHT22;10036;47.812;9.274;2022-09-30T13:22:57;13.80;99.90
19755;DHT22;10036;47.812;9.274;2022-09-30T13:25:26;13.70;99.90
19755;DHT22;10036;47.812;9.274;2022-09-30T13:31:13;13.50;99.90
19755;DHT22;10036;47.812;9.274;2022-09-30T13:33:45;13.60;99.90
19755;DHT22;10036;47.812;9.274;2022-09-30T13:36:24;13.60;99.90
19755;DHT22;10036;47.812;9.274;2022-09-30T13:39:18;13.60;99.90
19755;DHT22;10036;47.812;9.274;2022-09-30T13:42:05;13.60;99.90
19755;DHT22;10036;47.812;9.274;2022-09-30T13:44:39;13.50;99.90
19755;DHT22;10036;47.812;9.274;2022-09-30T13:47:17;13.50;99.90
19755;DHT22;10036;47.812;9.274;2022-09-30T13:49:51;13.60;99.90
19755;DHT22;10036;47.812;9.274;2022-09-30T13:52:24;13.70;99.90
19755;DHT22;10036;47.812;9.274;2022-09-30T13:54:54;13.80;99.90
19755;DHT22;10036;47.812;9.274;2022-09-30T13:57:29;13.80;99.90
19755;DHT22;10036;47.812;9.274;2022-09-30T14:00:06;13.80;99.90
19755;DHT22;10036;47.812;9.274;2022-09-30T14:03:06;13.80;99.90
19755;DHT22;10036;47.812;9.274;2022-09-30T14:05:47;13.80;99.90
19755;DHT22;10036;47.812;9.274;2022-09-30T14:11:26;13.90;99.90
19755;DHT22;10036;47.812;9.274;2022-09-30T14:14:12;13.80;99.90
19755;DHT22;10036;47.812;9.274;2022-09-30T14:17:19;13.70;99.90
19755;DHT22;10036;47.812;9.274;2022-09-30T14:19:58;13.70;99.90
19755;DHT22;10036;47.812;9.274;2022-09-30T14:22:29;13.70;99.90
19755;DHT22;10036;47.812;9.274;2022-09-30T14:24:57;13.60;99.90
19755;DHT22;10036;47.812;9.274;2022-09-30T14:27:47;13.60;99.90
19755;DHT22;10036;47.812;9.274;2022-09-30T14:30:19;13.50;99.90
19755;DHT22;10036;47.812;9.274;2022-09-30T14:32:47;13.50;99.90
19755;DHT22;10036;47.812;9.274;2022-09-30T14:35:18;13.60;99.90
19755;DHT22;10036;47.812;9.274;2022-09-30T14:37:48;13.70;99.90
19755;DHT22;10036;47.812;9.274;2022-09-30T14:40:18;13.90;99.90
19755;DHT22;10036;47.812;9.274;2022-09-30T14:42:47;14.10;99.90
19755;DHT22;10036;47.812;9.274;2022-09-30T14:45:20;14.30;99.90
19755;DHT22;10036;47.812;9.274;2022-09-30T14:47:52;14.40;99.90
19755;DHT22;10036;47.812;9.274;2022-09-30T14:50:22;14.80;99.90
19755;DHT22;10036;47.812;9.274;2022-09-30T14:52:51;15.10;99.90
19755;DHT22;10036;47.812;9.274;2022-09-30T14:55:23;15.20;99.90
19755;DHT22;10036;47.812;9.274;2022-09-30T14:57:52;15.30;99.90
19755;DHT22;10036;47.812;9.274;2022-09-30T15:00:31;15.50;99.90
19755;DHT22;10036;47.812;9.274;2022-09-30T15:02:58;15.50;99.90
19755;DHT22;10036;47.812;9.274;2022-09-30T15:05:27;15.50;99.90
19755;DHT22;10036;47.812;9.274;2022-09-30T15:07:54;15.40;99.90
19755;DHT22;10036;47.812;9.274;2022-09-30T15:10:22;15.40;99.90
19755;DHT22;10036;47.812;9.274;2022-09-30T15:12:50;15.50;99.90
19755;DHT22;10036;47.812;9.274;2022-09-30T15:15:33;15.60;99.90
19755;DHT22;10036;47.812;9.274;2022-09-30T15:18:21;15.70;99.90
19755;DHT22;10036;47.812;9.274;2022-09-30T15:20:51;15.90;99.90
19755;DHT22;10036;47.812;9.274;2022-09-30T15:23:24;15.80;99.90
19755;DHT22;10036;47.812;9.274;2022-09-30T15:25:51;15.40;99.90
19755;DHT22;10036;47.812;9.274;2022-09-30T15:28:19;15.10;99.90
19755;DHT22;10036;47.812;9.274;2022-09-30T15:30:47;15.00;99.90
19755;DHT22;10036;47.812;9.274;2022-09-30T15:33:20;14.70;99.90
19755;DHT22;10036;47.812;9.274;2022-09-30T15:35:48;14.50;99.90
19755;DHT22;10036;47.812;9.274;2022-09-30T15:38:18;14.40;99.90
19755;DHT22;10036;47.812;9.274;2022-09-30T15:40:49;14.30;99.90
19755;DHT22;10036;47.812;9.274;2022-09-30T15:43:31;14.30;99.90
19755;DHT22;10036;47.812;9.274;2022-09-30T15:46:15;14.40;99.90
19755;DHT22;10036;47.812;9.274;2022-09-30T15:48:43;14.40;99.90
19755;DHT22;10036;47.812;9.274;2022-09-30T15:51:25;14.50;99.90
19755;DHT22;10036;47.812;9.274;2022-09-30T15:53:52;14.40;99.90
19755;DHT22;10036;47.812;9.274;2022-09-30T15:56:24;14.50;99.90
19755;DHT22;10036;47.812;9.274;2022-09-30T15:58:55;14.50;99.90
19755;DHT22;10036;47.812;9.274;2022-09-30T16:01:25;14.40;99.90
19755;DHT22;10036;47.812;9.274;2022-09-30T16:03:54;14.20;99.90
19755;DHT22;10036;47.812;9.274;2022-09-30T16:06:27;14.10;99.90
19755;DHT22;10036;47.812;9.274;2022-09-30T16:08:58;14.10;99.90
19755;DHT22;10036;47.812;9.274;2022-09-30T16:11:28;14.10;99.90
19755;DHT22;10036;47.812;9.274;2022-09-30T16:13:57;14.00;99.90
19755;DHT22;10036;47.812;9.274;2022-09-30T16:16:28;13.90;99.90
19755;DHT22;10036;47.812;9.274;2022-09-30T16:18:57;14.00;99.90
19755;DHT22;10036;47.812;9.274;2022-09-30T16:21:38;14.00;99.90
19755;DHT22;10036;47.812;9.274;2022-09-30T16:24:42;13.80;99.90
19755;DHT22;10036;47.812;9.274;2022-09-30T16:27:25;13.80;99.90
19755;DHT22;10036;47.812;9.274;2022-09-30T16:29:54;13.60;99.90